Time;durP1;ratioP1;P1;durP2;ratioP2;P2;SDS_P1;SDS_P2;PMS_P1;PMS_P2;Temp;Humidity;BMP_temperature;BMP_pressure;BME280_temperature;BME280_humidity;BME280_pressure;Samples;Min_cycle;Max_cycle;Signal;HPM_P1;HPM_P2
2022/01/20 00:01:08;;;;;;;6.25;1.75;;;3.80;99.90;;;;;;5050724;28;20456;-71
2022/01/20 00:03:36;;;;;;;6.80;1.45;;;3.90;99.90;;;;;;5050309;28;20045;-71
2022/01/20 00:27:38;;;;;;;10.02;1.40;;;3.80;99.90;;;;;;5051719;28;20399;-71
2022/01/20 00:37:31;;;;;;;6.65;1.48;;;3.80;99.90;;;;;;5051339;28;20131;-72
2022/01/20 00:40:00;;;;;;;20.08;2.55;;;3.70;99.90;;;;;;5049636;28;20060;-71
2022/01/20 00:42:26;;;;;;;9.15;2.92;;;3.80;99.90;;;;;;5049957;28;20135;-71
2022/01/20 00:44:52;;;;;;;10.55;2.20;;;3.80;99.90;;;;;;5049297;28;20136;-71
2022/01/20 00:47:19;;;;;;;10.40;2.13;;;3.80;99.90;;;;;;5050059;28;20039;-71
2022/01/20 00:49:46;;;;;;;5.13;1.63;;;3.90;99.90;;;;;;5049960;28;20072;-71
2022/01/20 00:52:11;;;;;;;8.20;1.70;;;3.90;99.90;;;;;;5048772;28;20048;-71
2022/01/20 00:54:38;;;;;;;9.10;2.20;;;4.00;99.90;;;;;;5051101;28;20043;-71
2022/01/20 00:57:04;;;;;;;8.90;2.50;;;4.00;99.90;;;;;;5049289;28;20479;-71
2022/01/20 00:59:31;;;;;;;6.70;1.38;;;4.10;99.90;;;;;;5049051;28;20114;-71
2022/01/20 01:01:58;;;;;;;9.15;2.47;;;4.10;99.90;;;;;;5050849;28;20446;-71
2022/01/20 01:04:25;;;;;;;8.75;2.28;;;4.20;99.90;;;;;;5050904;28;20098;-71
2022/01/20 01:07:10;;;;;;;11.52;1.85;;;4.30;99.90;;;;;;5048829;28;20546;-71
2022/01/20 01:09:38;;;;;;;12.55;1.50;;;4.40;99.90;;;;;;5049911;28;20083;-71
2022/01/20 01:12:06;;;;;;;5.13;1.35;;;4.40;99.90;;;;;;5049183;28;20510;-71
2022/01/20 01:14:34;;;;;;;7.57;1.27;;;4.40;99.90;;;;;;5048762;28;20144;-72
2022/01/20 01:24:39;;;;;;;3.10;0.77;;;4.10;99.90;;;;;;5049590;28;20071;-72
2022/01/20 01:27:05;;;;;;;6.75;1.17;;;4.00;99.90;;;;;;5048437;28;20044;-71
2022/01/20 01:32:06;;;;;;;3.80;0.70;;;3.90;99.90;;;;;;5049121;28;20135;-71
2022/01/20 01:34:34;;;;;;;6.38;0.60;;;3.90;99.90;;;;;;5048927;28;20372;-72
2022/01/20 01:39:26;;;;;;;9.77;1.90;;;3.80;99.90;;;;;;5049255;28;20077;-71
2022/01/20 01:41:52;;;;;;;9.30;2.00;;;3.90;99.90;;;;;;5049940;28;20053;-72
2022/01/20 01:44:28;;;;;;;10.18;1.50;;;3.80;99.90;;;;;;5050453;28;20053;-71
2022/01/20 01:46:54;;;;;;;16.05;2.05;;;3.80;99.90;;;;;;5049564;28;20509;-71
2022/01/20 01:49:21;;;;;;;15.55;3.17;;;3.90;99.90;;;;;;5048160;28;20056;-71
2022/01/20 01:51:47;;;;;;;15.20;2.88;;;3.90;99.90;;;;;;5050478;28;20399;-72
2022/01/20 01:54:15;;;;;;;8.70;2.33;;;4.00;99.90;;;;;;5048759;28;20481;-72
2022/01/20 01:56:41;;;;;;;10.80;1.63;;;4.00;99.90;;;;;;5048438;28;20048;-72
2022/01/20 01:59:08;;;;;;;11.73;1.98;;;4.10;99.90;;;;;;5049356;28;20053;-72
2022/01/20 02:01:36;;;;;;;16.73;2.67;;;4.10;99.90;;;;;;5053306;28;20388;-71
2022/01/20 02:04:13;;;;;;;12.30;2.75;;;4.20;99.90;;;;;;5053418;28;20041;-72
2022/01/20 02:06:56;;;;;;;12.65;2.20;;;4.10;99.90;;;;;;5054214;28;20048;-72
2022/01/20 02:20:25;;;;;;;7.35;1.63;;;4.10;99.90;;;;;;5052422;28;20049;-72
2022/01/20 02:22:51;;;;;;;20.33;2.63;;;3.80;99.90;;;;;;5052316;28;20055;-72
2022/01/20 02:25:26;;;;;;;13.80;1.88;;;3.70;99.90;;;;;;5051742;28;20044;-72
2022/01/20 02:27:52;;;;;;;13.13;2.78;;;3.60;99.90;;;;;;5052554;28;20049;-72
2022/01/20 02:30:20;;;;;;;25.95;4.25;;;3.50;99.90;;;;;;5051611;28;20053;-71
2022/01/20 02:32:54;;;;;;;14.05;2.42;;;3.50;99.90;;;;;;5052283;28;20446;-71
2022/01/20 02:35:21;;;;;;;18.65;3.40;;;3.50;99.90;;;;;;5051976;28;20367;-71
2022/01/20 02:37:48;;;;;;;12.02;3.33;;;3.50;99.90;;;;;;5051702;28;20500;-71
2022/01/20 02:40:33;;;;;;;17.52;3.33;;;3.60;99.90;;;;;;5053395;28;20090;-72
2022/01/20 02:45:43;;;;;;;20.10;3.53;;;3.60;99.90;;;;;;5051724;28;20048;-71
2022/01/20 02:48:09;;;;;;;14.45;3.25;;;3.60;99.90;;;;;;5053086;28;20045;-71
2022/01/20 02:50:34;;;;;;;18.88;4.03;;;3.60;99.90;;;;;;5052273;28;20136;-72
2022/01/20 02:53:00;;;;;;;26.48;6.90;;;3.70;99.90;;;;;;5051329;28;20538;-71
2022/01/20 02:55:26;;;;;;;20.67;4.15;;;3.70;99.90;;;;;;5051805;28;20068;-73
2022/01/20 02:57:51;;;;;;;21.15;4.15;;;3.80;99.90;;;;;;5052173;28;20183;-72
2022/01/20 03:00:17;;;;;;;16.50;3.58;;;3.80;99.90;;;;;;5050590;28;20051;-72
2022/01/20 03:02:43;;;;;;;21.10;3.83;;;3.80;99.90;;;;;;5053135;28;20055;-71
2022/01/20 03:05:12;;;;;;;17.58;3.72;;;3.80;99.90;;;;;;5050895;28;20045;-71
2022/01/20 03:07:38;;;;;;;16.80;3.72;;;3.80;99.90;;;;;;5052372;28;20076;-72
2022/01/20 03:10:05;;;;;;;26.50;5.28;;;3.80;99.90;;;;;;5051657;28;20080;-71
2022/01/20 03:12:31;;;;;;;13.50;3.28;;;3.70;99.90;;;;;;5050974;28;20064;-72
2022/01/20 03:14:57;;;;;;;22.45;4.22;;;3.70;99.90;;;;;;5051744;28;20045;-71
2022/01/20 03:17:23;;;;;;;24.98;4.68;;;3.80;99.90;;;;;;5051068;28;20075;-72
2022/01/20 03:19:48;;;;;;;20.40;3.65;;;3.70;99.90;;;;;;5050996;28;20099;-72
2022/01/20 03:22:14;;;;;;;15.90;3.58;;;3.70;99.90;;;;;;5050939;28;20072;-72
2022/01/20 03:24:40;;;;;;;16.60;2.97;;;3.60;99.90;;;;;;5052769;28;20057;-72
2022/01/20 03:27:05;;;;;;;15.55;3.90;;;3.60;99.90;;;;;;5050344;28;20049;-72
2022/01/20 03:29:31;;;;;;;18.38;2.88;;;3.60;99.90;;;;;;5052708;28;20041;-72
2022/01/20 03:31:56;;;;;;;14.07;2.78;;;3.60;99.90;;;;;;5052557;28;20126;-72
2022/01/20 03:34:22;;;;;;;17.45;3.53;;;3.60;99.90;;;;;;5050462;28;20387;-72
2022/01/20 03:36:48;;;;;;;10.10;2.75;;;3.60;99.90;;;;;;5052650;28;20052;-72
2022/01/20 03:39:14;;;;;;;9.40;1.90;;;3.60;99.90;;;;;;5052238;28;20053;-72
2022/01/20 03:41:40;;;;;;;12.30;2.53;;;3.60;99.90;;;;;;5050262;28;20051;-72
2022/01/20 03:44:05;;;;;;;6.40;1.70;;;3.70;99.90;;;;;;5051181;28;20145;-72
2022/01/20 03:46:32;;;;;;;10.13;2.70;;;3.60;99.90;;;;;;5050973;28;20044;-72
2022/01/20 03:49:08;;;;;;;10.57;2.65;;;3.70;99.90;;;;;;5050425;28;20052;-72
2022/01/20 03:51:34;;;;;;;13.93;2.35;;;3.60;99.90;;;;;;5051240;28;20060;-72
2022/01/20 03:54:00;;;;;;;8.88;1.80;;;3.60;99.90;;;;;;5050837;28;20406;-72
2022/01/20 03:56:26;;;;;;;10.00;1.88;;;3.60;99.90;;;;;;5051290;28;20821;-73
2022/01/20 03:58:52;;;;;;;13.18;3.00;;;3.60;99.90;;;;;;5051831;28;20079;-72
2022/01/20 04:01:18;;;;;;;7.10;2.28;;;3.60;99.90;;;;;;5050453;28;20049;-71
2022/01/20 04:03:44;;;;;;;9.68;1.90;;;3.50;99.90;;;;;;5050091;28;20110;-72
2022/01/20 04:06:11;;;;;;;9.75;2.67;;;3.50;99.90;;;;;;5050617;28;20041;-72
2022/01/20 04:08:42;;;;;;;6.88;1.52;;;3.50;99.90;;;;;;5050893;28;20135;-71
2022/01/20 04:11:10;;;;;;;14.43;2.10;;;3.50;99.90;;;;;;5050189;28;20037;-71
2022/01/20 04:13:36;;;;;;;13.65;2.78;;;3.40;99.90;;;;;;5050384;28;20048;-71
2022/01/20 04:16:11;;;;;;;9.20;1.92;;;3.40;99.90;;;;;;5050723;28;20135;-71
2022/01/20 04:18:37;;;;;;;16.10;3.80;;;3.40;99.90;;;;;;5050492;28;20132;-71
2022/01/20 04:21:02;;;;;;;12.32;2.55;;;3.30;99.90;;;;;;5049819;28;20145;-71
2022/01/20 04:23:30;;;;;;;8.25;1.50;;;3.30;99.90;;;;;;5048875;28;20068;-71
2022/01/20 04:25:56;;;;;;;12.00;1.95;;;3.30;99.90;;;;;;5050295;28;20053;-72
2022/01/20 04:28:23;;;;;;;10.27;2.13;;;3.30;99.90;;;;;;5049775;28;20051;-71
2022/01/20 04:30:49;;;;;;;15.93;2.17;;;3.40;99.90;;;;;;5049480;28;20040;-71
2022/01/20 04:33:14;;;;;;;8.98;2.60;;;3.40;99.90;;;;;;5049804;28;20056;-72
2022/01/20 04:35:40;;;;;;;13.45;4.15;;;3.40;99.90;;;;;;5050075;28;20473;-72
2022/01/20 04:38:07;;;;;;;15.07;2.50;;;3.40;99.90;;;;;;5049062;28;20045;-71
2022/01/20 04:40:38;;;;;;;12.52;2.50;;;3.40;99.90;;;;;;5050054;28;20067;-71
2022/01/20 04:43:04;;;;;;;14.48;2.58;;;3.40;99.90;;;;;;5050094;28;20069;-71
2022/01/20 04:45:35;;;;;;;13.85;3.28;;;3.30;99.90;;;;;;5049666;28;20083;-71
2022/01/20 04:48:23;;;;;;;14.68;2.95;;;3.40;99.90;;;;;;5049665;28;20099;-71
2022/01/20 04:59:05;;;;;;;12.93;3.20;;;3.20;99.90;;;;;;5048880;28;20480;-72
2022/01/20 05:01:31;;;;;;;8.90;1.73;;;3.00;99.90;;;;;;5049880;28;20053;-72
2022/01/20 05:03:57;;;;;;;2.63;0.77;;;2.90;99.90;;;;;;5051014;28;20052;-71
2022/01/20 05:06:23;;;;;;;2.55;1.05;;;2.70;99.90;;;;;;5048805;28;20080;-71
2022/01/20 05:08:51;;;;;;;2.08;0.40;;;2.60;99.90;;;;;;5049501;28;20091;-71
2022/01/20 05:11:16;;;;;;;3.33;1.25;;;2.60;99.90;;;;;;5044080;28;20045;-71
2022/01/20 05:13:42;;;;;;;11.38;1.00;;;2.60;99.90;;;;;;5046945;28;20041;-71
2022/01/20 05:16:08;;;;;;;4.90;1.05;;;2.60;99.90;;;;;;5047049;28;20060;-71
2022/01/20 05:18:34;;;;;;;7.53;1.40;;;2.60;99.90;;;;;;5050939;28;20372;-71
2022/01/20 05:21:00;;;;;;;7.78;1.67;;;2.50;99.90;;;;;;5048602;28;20061;-71
2022/01/20 05:23:25;;;;;;;3.47;1.10;;;2.50;99.90;;;;;;5050278;28;20053;-71
2022/01/20 05:25:51;;;;;;;8.27;1.83;;;2.50;99.90;;;;;;5049399;28;20523;-71
2022/01/20 05:28:17;;;;;;;12.35;2.25;;;2.60;99.90;;;;;;5047729;28;20403;-71
2022/01/20 05:30:43;;;;;;;17.08;2.67;;;2.60;99.90;;;;;;5049496;28;20048;-71
2022/01/20 05:33:09;;;;;;;12.45;3.60;;;2.60;99.90;;;;;;5050425;28;20144;-71
2022/01/20 05:35:35;;;;;;;9.55;2.42;;;2.70;99.90;;;;;;5053597;28;20068;-71
2022/01/20 05:38:01;;;;;;;11.45;2.38;;;2.70;99.90;;;;;;5053249;28;20063;-71
2022/01/20 05:40:27;;;;;;;8.00;2.85;;;2.80;99.90;;;;;;5054004;28;20428;-71
2022/01/20 05:42:53;;;;;;;14.05;3.25;;;2.80;99.90;;;;;;5054619;28;20045;-71
2022/01/20 05:45:19;;;;;;;21.25;3.40;;;2.80;99.90;;;;;;5053255;28;20075;-71
2022/01/20 05:47:47;;;;;;;9.35;2.88;;;2.80;99.90;;;;;;5052624;28;20136;-71
2022/01/20 05:50:16;;;;;;;16.05;3.00;;;2.80;99.90;;;;;;5053159;28;20067;-71
2022/01/20 05:52:42;;;;;;;24.63;3.47;;;2.80;99.90;;;;;;5053403;28;20049;-71
2022/01/20 05:55:10;;;;;;;14.45;2.85;;;2.90;99.90;;;;;;5052132;28;20057;-72
2022/01/20 05:57:36;;;;;;;19.27;3.15;;;2.90;99.90;;;;;;5052623;28;20049;-71
2022/01/20 06:00:04;;;;;;;7.65;1.83;;;3.00;99.90;;;;;;5050190;28;20047;-71
2022/01/20 06:03:35;;;;;;;9.18;3.03;;;3.40;99.90;;;;;;5052141;28;20491;-71
2022/01/20 06:05:18;;;;;;;8.65;2.95;;;3.20;99.90;;;;;;5053347;28;20458;-71
2022/01/20 06:07:44;;;;;;;7.03;1.75;;;3.20;99.90;;;;;;5054187;28;20049;-71
2022/01/20 06:10:09;;;;;;;7.03;2.22;;;3.20;99.90;;;;;;5051839;28;20407;-71
2022/01/20 06:12:35;;;;;;;15.50;2.85;;;3.10;99.90;;;;;;5053018;28;20045;-71
2022/01/20 06:15:00;;;;;;;10.82;3.03;;;3.00;99.90;;;;;;5052863;28;20122;-72
2022/01/20 06:17:28;;;;;;;7.90;2.47;;;3.00;99.90;;;;;;5053512;28;20152;-71
2022/01/20 06:19:53;;;;;;;16.02;3.10;;;3.00;99.90;;;;;;5052755;28;20041;-71
2022/01/20 06:22:19;;;;;;;11.25;2.72;;;2.90;99.90;;;;;;5052733;28;20060;-71
2022/01/20 06:24:45;;;;;;;7.07;2.10;;;2.90;99.90;;;;;;5051809;28;20106;-71
2022/01/20 06:27:10;;;;;;;10.90;2.70;;;2.90;99.90;;;;;;5053474;28;20061;-71
2022/01/20 06:29:36;;;;;;;14.25;3.42;;;4.00;99.90;;;;;;5053317;28;20040;-71
2022/01/20 06:32:02;;;;;;;9.90;2.47;;;2.90;99.90;;;;;;5052091;28;20052;-71
2022/01/20 06:34:28;;;;;;;10.63;2.28;;;2.90;99.90;;;;;;5052123;28;20128;-72
2022/01/20 06:36:53;;;;;;;7.38;1.63;;;2.90;99.90;;;;;;5051562;28;20171;-71
2022/01/20 06:39:19;;;;;;;5.15;1.67;;;2.80;99.90;;;;;;5052246;28;20041;-71
2022/01/20 06:41:44;;;;;;;12.18;2.13;;;2.70;99.90;;;;;;5052361;28;20491;-72
2022/01/20 06:44:10;;;;;;;7.30;1.58;;;2.80;99.90;;;;;;5051538;28;20033;-71
2022/01/20 06:46:36;;;;;;;9.98;1.77;;;2.60;99.90;;;;;;5051282;28;20145;-72
2022/01/20 06:49:02;;;;;;;10.27;2.40;;;2.50;99.90;;;;;;5053237;28;20116;-71
2022/01/20 06:51:28;;;;;;;16.05;2.38;;;2.40;99.90;;;;;;5050816;28;20415;-70
2022/01/20 06:53:54;;;;;;;11.68;2.05;;;2.50;99.90;;;;;;5052084;28;20045;-71
2022/01/20 06:56:19;;;;;;;8.05;1.85;;;2.40;99.90;;;;;;5051550;28;20056;-71
2022/01/20 06:58:45;;;;;;;7.20;1.77;;;2.50;99.90;;;;;;5051295;28;20048;-71
2022/01/20 07:01:11;;;;;;;13.75;2.58;;;2.50;99.90;;;;;;5051993;28;20052;-71
2022/01/20 07:03:36;;;;;;;7.85;2.08;;;2.60;99.90;;;;;;5052043;28;20059;-71
2022/01/20 07:06:02;;;;;;;12.20;2.25;;;2.50;99.90;;;;;;5052226;28;20064;-71
2022/01/20 07:08:28;;;;;;;11.38;2.10;;;2.60;99.90;;;;;;5051848;28;20161;-71
2022/01/20 07:10:55;;;;;;;12.43;3.08;;;2.80;99.90;;;;;;5050853;28;20346;-72
2022/01/20 07:13:21;;;;;;;17.00;3.03;;;3.00;99.90;;;;;;5050737;28;20059;-73
2022/01/20 07:15:46;;;;;;;7.50;1.55;;;2.70;99.90;;;;;;5051316;28;20390;-71
2022/01/20 07:18:12;;;;;;;15.05;3.30;;;2.60;99.90;;;;;;5051468;28;20091;-72
2022/01/20 07:20:38;;;;;;;8.73;2.38;;;2.60;99.90;;;;;;5050993;28;20049;-72
2022/01/20 07:23:03;;;;;;;6.38;2.58;;;2.50;99.90;;;;;;5050075;28;20132;-72
2022/01/20 07:25:29;;;;;;;14.90;2.55;;;2.50;99.90;;;;;;5049943;28;20056;-71
2022/01/20 07:27:54;;;;;;;11.65;2.65;;;2.40;99.90;;;;;;5052195;28;20044;-72
2022/01/20 07:30:20;;;;;;;8.07;1.90;;;2.40;99.90;;;;;;5051201;28;20049;-72
2022/01/20 07:32:47;;;;;;;13.07;2.40;;;2.40;99.90;;;;;;5050694;28;20111;-72
2022/01/20 07:35:12;;;;;;;9.90;2.17;;;2.50;99.90;;;;;;5051670;28;20052;-72
2022/01/20 07:37:38;;;;;;;11.30;1.95;;;2.40;99.90;;;;;;5051343;28;20415;-71
2022/01/20 07:40:04;;;;;;;14.27;2.65;;;2.40;99.90;;;;;;5050216;28;20052;-72
2022/01/20 07:42:30;;;;;;;13.88;2.30;;;2.40;99.90;;;;;;5051364;28;20087;-72
2022/01/20 07:44:55;;;;;;;13.55;2.15;;;2.40;99.90;;;;;;5052589;28;20057;-72
2022/01/20 07:47:21;;;;;;;8.88;1.90;;;2.40;99.90;;;;;;5039162;28;20048;-71
2022/01/20 07:49:47;;;;;;;9.05;3.30;;;2.50;99.90;;;;;;5052239;28;20471;-72
2022/01/20 07:52:14;;;;;;;15.68;2.13;;;2.60;99.90;;;;;;5050893;28;20187;-72
2022/01/20 07:54:39;;;;;;;17.13;3.03;;;2.70;99.90;;;;;;5050409;28;20544;-72
2022/01/20 07:57:07;;;;;;;11.77;2.35;;;2.70;99.90;;;;;;5050357;28;20053;-72
2022/01/20 07:59:33;;;;;;;10.20;1.75;;;2.70;99.90;;;;;;5050242;28;20037;-72
2022/01/20 08:01:59;;;;;;;8.98;2.15;;;2.80;99.90;;;;;;5044518;28;20110;-72
2022/01/20 08:04:24;;;;;;;13.18;2.30;;;2.80;99.90;;;;;;5046253;28;20495;-74
2022/01/20 08:06:53;;;;;;;14.23;3.03;;;2.80;99.90;;;;;;5050764;28;20492;-73
2022/01/20 08:09:18;;;;;;;7.78;1.63;;;2.70;99.90;;;;;;5049729;28;20329;-72
2022/01/20 08:11:44;;;;;;;10.40;2.60;;;2.70;99.90;;;;;;5050779;28;20364;-71
2022/01/20 08:14:10;;;;;;;28.05;3.55;;;2.70;99.90;;;;;;5049833;28;20083;-72
2022/01/20 08:16:35;;;;;;;18.42;3.00;;;2.70;99.90;;;;;;5048898;28;20067;-76
2022/01/20 08:19:01;;;;;;;14.57;2.47;;;2.80;99.90;;;;;;5051490;28;20045;-70
2022/01/20 08:21:26;;;;;;;6.30;1.30;;;2.80;99.90;;;;;;5050342;28;20099;-71
2022/01/20 08:23:52;;;;;;;7.32;1.58;;;2.90;99.90;;;;;;5049510;28;20048;-72
2022/01/20 08:26:18;;;;;;;8.07;2.10;;;3.00;99.90;;;;;;5048460;28;20049;-72
2022/01/20 08:28:43;;;;;;;8.35;1.67;;;3.10;99.90;;;;;;5049726;28;20401;-69
2022/01/20 08:31:09;;;;;;;8.85;2.10;;;3.20;99.90;;;;;;5049425;28;20521;-80
2022/01/20 08:33:35;;;;;;;9.13;2.05;;;3.20;99.90;;;;;;5048844;28;20045;-79
2022/01/20 08:36:00;;;;;;;9.50;1.95;;;3.40;99.90;;;;;;5049713;28;20138;-78
2022/01/20 08:38:26;;;;;;;9.68;2.35;;;3.50;99.90;;;;;;5050127;28;20044;-79
2022/01/20 08:40:52;;;;;;;9.82;2.05;;;3.50;99.90;;;;;;5050961;28;20049;-79
2022/01/20 08:43:18;;;;;;;9.65;2.33;;;3.50;99.90;;;;;;5049143;28;20056;-79
2022/01/20 08:45:44;;;;;;;12.32;2.25;;;3.30;99.90;;;;;;5049794;28;20407;-78
2022/01/20 08:48:12;;;;;;;7.88;2.00;;;3.10;99.90;;;;;;5047723;28;20041;-75
2022/01/20 08:50:40;;;;;;;4.97;1.73;;;2.90;99.90;;;;;;5042439;28;20068;-75
2022/01/20 08:53:06;;;;;;;8.80;1.63;;;2.80;99.90;;;;;;5047008;28;20072;-77
2022/01/20 08:55:33;;;;;;;5.47;1.20;;;2.70;99.90;;;;;;5048699;28;20091;-78
2022/01/20 08:57:59;;;;;;;4.05;1.52;;;2.50;99.90;;;;;;5047436;28;20041;-78
2022/01/20 09:00:27;;;;;;;5.38;1.20;;;2.50;99.90;;;;;;5048154;28;20126;-77
2022/01/20 09:02:52;;;;;;;14.10;1.20;;;2.50;99.90;;;;;;5049697;28;20048;-76
2022/01/20 09:05:18;;;;;;;7.53;1.70;;;2.60;99.90;;;;;;5047589;28;20045;-78
2022/01/20 09:07:44;;;;;;;9.00;2.00;;;2.50;99.90;;;;;;5048697;28;20076;-77
2022/01/20 09:10:18;;;;;;;8.27;1.88;;;2.60;99.90;;;;;;5049999;28;20698;-78
2022/01/20 09:15:30;;;;;;;12.23;2.17;;;2.50;99.90;;;;;;5048797;28;20487;-80
2022/01/20 09:17:59;;;;;;;10.68;1.65;;;2.40;99.90;;;;;;5049263;28;20096;-81
2022/01/20 09:20:25;;;;;;;10.55;1.75;;;2.40;99.90;;;;;;5047640;28;20052;-82
2022/01/20 09:22:51;;;;;;;11.90;2.42;;;2.30;99.90;;;;;;5048096;28;20053;-80
2022/01/20 09:25:18;;;;;;;6.40;1.45;;;2.30;99.90;;;;;;5044774;28;20476;-80
2022/01/20 09:27:43;;;;;;;14.43;3.17;;;2.30;99.90;;;;;;5039410;28;20092;-81
2022/01/20 09:30:14;;;;;;;12.40;2.90;;;2.30;99.90;;;;;;5030148;28;20088;-82
2022/01/20 09:32:40;;;;;;;7.70;2.13;;;2.30;99.90;;;;;;5028464;28;20099;-82
2022/01/20 09:35:06;;;;;;;14.45;2.60;;;2.40;99.90;;;;;;5030338;28;20049;-81
2022/01/20 09:37:32;;;;;;;13.02;2.97;;;2.50;99.90;;;;;;5036379;28;20049;-82
2022/01/20 09:39:57;;;;;;;14.00;3.05;;;2.50;99.90;;;;;;5048244;28;20045;-80
2022/01/20 09:42:25;;;;;;;17.05;3.50;;;2.60;99.90;;;;;;5048745;28;20053;-80
2022/01/20 09:44:53;;;;;;;20.15;3.38;;;2.90;99.90;;;;;;5050092;28;21495;-82
2022/01/20 09:47:19;;;;;;;19.98;2.75;;;3.10;99.90;;;;;;5049050;28;20609;-80
2022/01/20 09:49:45;;;;;;;10.80;2.55;;;3.30;99.90;;;;;;5047861;28;20081;-83
2022/01/20 09:52:11;;;;;;;12.10;2.28;;;3.30;99.90;;;;;;5048816;28;20079;-79
2022/01/20 09:54:38;;;;;;;10.57;1.77;;;3.40;99.90;;;;;;5054806;28;20061;-79
2022/01/20 09:57:04;;;;;;;12.00;1.98;;;3.30;99.90;;;;;;5053334;28;20080;-81
2022/01/20 09:59:31;;;;;;;10.20;2.42;;;3.30;99.90;;;;;;5050246;28;20037;-80
2022/01/20 10:01:58;;;;;;;7.22;1.80;;;3.30;99.90;;;;;;5048199;28;20061;-80
2022/01/20 10:04:30;;;;;;;7.00;2.10;;;3.40;99.90;;;;;;5050310;28;20048;-80
2022/01/20 10:07:02;;;;;;;9.18;1.58;;;3.40;99.90;;;;;;5049233;28;20159;-82
2022/01/20 10:09:38;;;;;;;10.45;2.40;;;3.30;99.90;;;;;;5048247;28;20041;-82
2022/01/20 10:12:06;;;;;;;5.18;1.17;;;3.20;99.90;;;;;;5049170;28;20090;-83
2022/01/20 10:14:48;;;;;;;5.68;1.23;;;3.00;99.90;;;;;;5048185;28;20049;-79
2022/01/20 10:17:14;;;;;;;;;;;3.00;99.90;;;;;;5050563;28;20044;-81
2022/01/20 10:19:40;;;;;;;5.05;1.30;;;2.90;99.90;;;;;;5050440;28;20338;-82
2022/01/20 10:22:14;;;;;;;6.30;0.93;;;2.80;99.90;;;;;;5051666;28;20049;-82
2022/01/20 10:24:41;;;;;;;5.57;1.25;;;2.90;99.90;;;;;;5053019;28;20053;-82
2022/01/20 10:27:12;;;;;;;6.97;1.98;;;3.00;99.90;;;;;;5052647;28;20129;-82
2022/01/20 10:29:37;;;;;;;13.70;2.95;;;3.20;99.90;;;;;;5052055;28;20484;-83
2022/01/20 10:32:03;;;;;;;10.43;2.03;;;3.40;99.90;;;;;;5052059;28;20056;-79
2022/01/20 10:34:34;;;;;;;6.70;1.67;;;3.40;99.90;;;;;;5066054;28;20046;-80
2022/01/20 10:37:24;;;;;;;10.60;2.58;;;3.50;99.90;;;;;;5050505;28;20048;-78
2022/01/20 10:39:49;;;;;;;9.50;2.65;;;3.60;99.90;;;;;;5052549;28;20377;-78
2022/01/20 10:42:20;;;;;;;8.32;1.80;;;3.50;99.90;;;;;;5053660;28;20051;-78
2022/01/20 10:44:54;;;;;;;6.40;1.85;;;3.50;99.90;;;;;;5051665;28;20045;-73
2022/01/20 10:47:26;;;;;;;6.22;1.70;;;3.50;99.90;;;;;;5085340;28;20082;-73
2022/01/20 10:49:52;;;;;;;8.38;2.03;;;3.60;99.90;;;;;;5051884;28;20049;-73
2022/01/20 10:52:21;;;;;;;8.68;2.42;;;3.80;99.90;;;;;;5051614;28;20815;-74
2022/01/20 10:54:51;;;;;;;9.43;2.53;;;4.00;99.90;;;;;;5051656;28;20132;-73
2022/01/20 10:57:16;;;;;;;26.80;3.67;;;4.20;99.90;;;;;;5049866;28;20058;-75
2022/01/20 10:59:57;;;;;;;19.05;2.88;;;4.30;99.90;;;;;;5051794;28;20055;-75
2022/01/20 11:02:27;;;;;;;3.88;1.08;;;4.40;99.90;;;;;;5051795;28;20553;-75
2022/01/20 11:04:53;;;;;;;6.32;1.55;;;4.20;99.90;;;;;;5050472;28;20056;-74
2022/01/20 11:07:20;;;;;;;4.68;0.73;;;4.00;99.90;;;;;;5042383;28;20136;-73
2022/01/20 11:09:51;;;;;;;12.18;2.53;;;3.90;99.90;;;;;;5050985;28;20037;-74
2022/01/20 11:12:17;;;;;;;4.10;1.30;;;3.70;99.90;;;;;;5050243;28;20064;-73
2022/01/20 11:14:46;;;;;;;6.63;1.08;;;3.60;99.90;;;;;;5051568;28;20056;-73
2022/01/20 11:17:22;;;;;;;6.50;1.92;;;3.40;99.90;;;;;;5051233;28;20064;-74
2022/01/20 11:19:49;;;;;;;10.10;2.45;;;3.50;99.90;;;;;;5051138;28;20040;-73
2022/01/20 11:22:15;;;;;;;10.68;1.85;;;3.60;99.90;;;;;;5050967;28;20052;-73
2022/01/20 11:24:42;;;;;;;8.40;2.63;;;3.80;99.90;;;;;;5051799;28;20391;-74
2022/01/20 11:27:13;;;;;;;14.30;2.67;;;3.80;99.90;;;;;;5050085;28;20056;-74
2022/01/20 11:29:38;;;;;;;7.22;2.17;;;3.80;99.90;;;;;;5050678;28;20095;-73
2022/01/20 11:32:20;;;;;;;15.00;2.28;;;3.60;99.90;;;;;;5049798;28;20053;-72
2022/01/20 11:35:03;;;;;;;11.60;2.03;;;3.30;99.90;;;;;;5052814;28;20091;-74
2022/01/20 11:37:34;;;;;;;13.40;2.13;;;3.00;99.90;;;;;;5049680;28;20098;-73
2022/01/20 11:40:14;;;;;;;6.25;0.98;;;2.70;99.90;;;;;;5049755;28;20037;-74
2022/01/20 11:42:39;;;;;;;8.82;1.30;;;2.70;99.90;;;;;;5051367;28;20132;-73
2022/01/20 11:45:28;;;;;;;5.20;0.95;;;2.70;99.90;;;;;;5051513;28;20115;-73
2022/01/20 11:47:55;;;;;;;5.45;1.60;;;2.80;99.90;;;;;;5046413;28;20045;-74
2022/01/20 11:50:21;;;;;;;9.82;1.45;;;2.90;99.90;;;;;;5050373;28;20585;-75
2022/01/20 11:52:47;;;;;;;7.60;1.42;;;3.10;99.90;;;;;;5050626;28;20056;-72
2022/01/20 11:55:16;;;;;;;12.10;1.52;;;3.30;99.90;;;;;;5050477;28;20041;-72
2022/01/20 11:57:42;;;;;;;14.57;1.75;;;3.40;99.90;;;;;;5051191;28;20601;-73
2022/01/20 12:00:27;;;;;;;10.98;2.85;;;3.60;99.90;;;;;;5050359;28;20116;-72
2022/01/20 12:02:54;;;;;;;12.98;2.20;;;4.00;99.90;;;;;;5050411;28;20067;-72
2022/01/20 12:05:26;;;;;;;9.75;2.60;;;4.00;99.90;;;;;;5049996;28;20061;-76
2022/01/20 12:08:23;;;;;;;11.88;2.90;;;4.10;99.90;;;;;;5050182;28;20124;-76
2022/01/20 12:11:09;;;;;;;16.48;3.10;;;4.20;99.90;;;;;;5051492;28;20052;-72
2022/01/20 12:13:51;;;;;;;29.10;3.55;;;4.20;99.90;;;;;;5050683;28;20045;-72
2022/01/20 12:16:22;;;;;;;9.65;2.20;;;4.20;99.90;;;;;;5043437;28;20048;-72
2022/01/20 12:18:53;;;;;;;18.83;3.17;;;4.10;99.90;;;;;;5050721;28;20124;-72
2022/01/20 12:21:19;;;;;;;14.35;2.88;;;4.10;99.90;;;;;;5045361;28;20564;-71
2022/01/20 12:23:46;;;;;;;20.42;2.97;;;4.20;99.90;;;;;;5047517;28;20422;-72
2022/01/20 12:26:12;;;;;;;13.95;2.83;;;4.40;99.90;;;;;;5050637;28;20084;-73
2022/01/20 12:28:37;;;;;;;14.05;2.10;;;4.50;99.90;;;;;;5050292;28;20072;-73
2022/01/20 12:31:06;;;;;;;9.45;2.47;;;4.50;99.90;;;;;;5050808;28;20052;-74
2022/01/20 12:33:34;;;;;;;12.48;2.78;;;4.40;99.90;;;;;;5049811;28;20049;-73
2022/01/20 12:36:03;;;;;;;10.93;2.50;;;4.20;99.90;;;;;;5048666;28;20055;-73
2022/01/20 12:38:29;;;;;;;15.60;3.50;;;4.10;99.90;;;;;;5049372;28;20049;-73
2022/01/20 12:41:00;;;;;;;5.00;2.03;;;4.10;99.90;;;;;;5049054;28;20409;-72
2022/01/20 12:43:43;;;;;;;14.45;3.22;;;4.20;99.90;;;;;;5048201;28;20392;-72
2022/01/20 12:46:11;;;;;;;17.50;3.03;;;4.30;99.90;;;;;;5049141;28;20049;-74
2022/01/20 12:48:39;;;;;;;12.73;2.90;;;4.40;99.90;;;;;;5048809;28;20044;-71
2022/01/20 12:51:07;;;;;;;19.10;3.00;;;4.30;99.90;;;;;;5082156;28;20057;-73
2022/01/20 12:53:39;;;;;;;15.82;3.28;;;4.30;99.90;;;;;;5048714;28;20052;-73
2022/01/20 12:56:07;;;;;;;12.85;3.22;;;4.30;99.90;;;;;;5049224;28;20072;-72
2022/01/20 12:58:45;;;;;;;12.45;2.83;;;4.30;99.90;;;;;;5050468;28;20049;-72
2022/01/20 13:01:10;;;;;;;17.35;2.38;;;4.40;99.90;;;;;;5051040;28;20045;-72
2022/01/20 13:03:41;;;;;;;11.32;2.33;;;4.60;99.90;;;;;;5049999;28;20108;-71
2022/01/20 13:06:11;;;;;;;15.52;3.30;;;4.50;99.90;;;;;;5049415;28;20592;-72
2022/01/20 13:08:40;;;;;;;9.25;2.00;;;4.30;99.90;;;;;;5049448;28;20071;-74
2022/01/20 13:11:13;;;;;;;9.68;1.55;;;4.10;99.90;;;;;;5049106;28;20083;-72
2022/01/20 13:13:39;;;;;;;12.65;3.80;;;4.00;99.90;;;;;;5050896;28;20041;-71
2022/01/20 13:16:15;;;;;;;15.63;2.63;;;4.00;99.90;;;;;;5049011;28;20388;-72
2022/01/20 13:18:59;;;;;;;11.02;2.58;;;4.00;99.90;;;;;;5048753;28;20090;-72
2022/01/20 13:21:40;;;;;;;10.10;1.80;;;4.00;99.90;;;;;;5048797;28;20060;-73
2022/01/20 13:24:08;;;;;;;7.35;1.95;;;4.10;99.90;;;;;;5048955;28;20045;-72
2022/01/20 13:26:45;;;;;;;9.23;1.40;;;4.20;99.90;;;;;;5048765;28;20176;-72
2022/01/20 13:29:12;;;;;;;12.77;2.47;;;4.20;99.90;;;;;;5048661;28;20064;-73
2022/01/20 13:31:37;;;;;;;9.85;2.15;;;4.30;99.90;;;;;;5048268;28;20037;-73
2022/01/20 13:34:08;;;;;;;6.47;1.83;;;4.20;99.90;;;;;;5048438;28;20061;-73
2022/01/20 13:36:51;;;;;;;10.88;1.48;;;3.90;99.90;;;;;;5048945;28;20494;-71
2022/01/20 13:39:32;;;;;;;6.95;0.80;;;3.70;99.90;;;;;;5048010;28;20542;-72
2022/01/20 13:45:13;;;;;;;8.02;1.40;;;3.60;99.90;;;;;;5081119;28;20412;-72
2022/01/20 13:47:56;;;;;;;6.72;1.70;;;3.70;99.90;;;;;;5030201;28;20054;-73
2022/01/20 13:50:48;;;;;;;;;;;3.70;99.90;;;;;;5042176;28;20107;-71
2022/01/20 13:53:19;;;;;;;15.82;3.38;;;3.80;99.90;;;;;;5047985;28;20432;-72
2022/01/20 13:55:45;;;;;;;14.32;2.40;;;3.70;99.90;;;;;;5052287;28;20041;-72
2022/01/20 13:58:29;;;;;;;15.85;2.58;;;3.70;99.90;;;;;;5051433;28;20057;-73
2022/01/20 14:00:56;;;;;;;8.45;2.25;;;3.70;99.90;;;;;;5051481;28;20408;-72
2022/01/20 14:03:22;;;;;;;8.20;1.77;;;3.50;99.90;;;;;;5046271;28;20052;-72
2022/01/20 14:05:49;;;;;;;10.55;1.83;;;3.40;99.90;;;;;;5052206;28;20043;-73
2022/01/20 14:08:15;;;;;;;11.50;2.58;;;3.30;99.90;;;;;;5051538;28;20535;-72